Time;durP1;ratioP1;P1;durP2;ratioP2;P2;SDS_P1;SDS_P2;PMS_P1;PMS_P2;Temp;Humidity;BMP_temperature;BMP_pressure;BME280_temperature;BME280_humidity;BME280_pressure;Samples;Min_cycle;Max_cycle;Signal;HPM_P1;HPM_P2
2023/02/03 00:02:29;;;;;;;9.32;8.20;;;;;;;4.36;100.00;101720.13;10106102;28;20446;-68
2023/02/03 00:07:25;;;;;;;15.82;9.65;;;;;;;4.40;100.00;101715.81;10098814;28;20076;-69
2023/02/03 00:12:22;;;;;;;10.05;8.85;;;;;;;4.49;100.00;101718.09;10100796;28;20130;-68
2023/02/03 00:17:18;;;;;;;10.75;8.25;;;;;;;4.59;100.00;101707.38;10106245;28;20122;-68
2023/02/03 00:22:15;;;;;;;12.80;9.88;;;;;;;4.76;100.00;101707.31;10112495;28;20134;-68
2023/02/03 00:27:11;;;;;;;14.10;10.00;;;;;;;4.96;100.00;101693.13;10108403;28;20101;-68
2023/02/03 00:32:08;;;;;;;13.10;9.90;;;;;;;5.08;100.00;101710.06;10107156;28;20114;-69
2023/02/03 00:37:04;;;;;;;14.32;9.93;;;;;;;5.20;100.00;101686.34;10112474;28;20540;-68
2023/02/03 00:42:03;;;;;;;14.65;10.10;;;;;;;5.31;100.00;101686.41;10110611;28;20038;-69
2023/02/03 00:47:00;;;;;;;14.43;10.65;;;;;;;5.36;100.00;101667.44;10113131;28;20057;-68
2023/02/03 00:51:56;;;;;;;12.82;9.68;;;;;;;5.45;100.00;101669.44;10112472;28;20042;-68
2023/02/03 00:56:53;;;;;;;12.52;9.30;;;;;;;5.60;100.00;101662.50;10109316;28;20486;-68
2023/02/03 01:01:49;;;;;;;13.95;10.70;;;;;;;5.72;100.00;101654.16;10111340;28;20066;-70
2023/02/03 01:06:46;;;;;;;13.02;10.68;;;;;;;5.85;100.00;101643.66;10107301;28;20050;-70
2023/02/03 01:11:42;;;;;;;20.58;11.93;;;;;;;5.98;100.00;101641.56;10091553;28;20039;-71
2023/02/03 01:16:39;;;;;;;21.63;12.13;;;;;;;6.07;100.00;101635.34;10068150;28;20517;-70
2023/02/03 01:21:36;;;;;;;19.52;12.55;;;;;;;6.16;100.00;101627.53;10069908;28;20130;-70
2023/02/03 01:26:32;;;;;;;15.98;11.15;;;;;;;6.21;100.00;101613.16;10067619;28;20058;-70
2023/02/03 01:31:35;;;;;;;15.98;12.32;;;;;;;6.24;100.00;101596.31;10068644;28;20047;-70
2023/02/03 01:36:34;;;;;;;19.70;11.50;;;;;;;6.31;100.00;101596.88;10058051;28;20530;-69
2023/02/03 01:41:34;;;;;;;12.65;10.00;;;;;;;6.35;100.00;101553.72;10066883;28;20229;-68
2023/02/03 01:46:36;;;;;;;21.15;10.30;;;;;;;6.36;100.00;101539.88;10063176;28;20166;-69
2023/02/03 01:51:33;;;;;;;17.75;10.10;;;;;;;6.32;100.00;101517.03;10064570;28;20050;-70
2023/02/03 01:56:33;;;;;;;18.15;10.32;;;;;;;6.35;100.00;101548.28;10064158;28;20049;-69
2023/02/03 02:01:31;;;;;;;16.27;11.38;;;;;;;6.38;100.00;101539.59;10070281;28;20043;-69
2023/02/03 02:06:28;;;;;;;17.10;11.35;;;;;;;6.38;100.00;101536.88;10064500;28;20051;-69
2023/02/03 02:11:26;;;;;;;16.45;10.50;;;;;;;6.34;100.00;101531.19;10066893;28;20053;-70
2023/02/03 02:16:34;;;;;;;12.45;10.25;;;;;;;6.38;100.00;101537.66;10053132;28;20093;-69
2023/02/03 02:22:00;;;;;;;18.88;9.52;;;;;;;6.40;100.00;101548.28;10065878;28;20078;-68
2023/02/03 02:27:36;;;;;;;17.15;9.40;;;;;;;6.38;100.00;101515.94;10067620;28;20069;-68
2023/02/03 02:32:45;;;;;;;20.00;9.38;;;;;;;6.35;100.00;101521.94;10074343;28;20425;-69
2023/02/03 02:37:57;;;;;;;15.75;10.27;;;;;;;6.37;100.00;101503.47;10067350;28;20133;-69
2023/02/03 02:43:20;;;;;;;15.98;9.55;;;;;;;6.40;100.00;101521.94;10066403;28;20134;-69
2023/02/03 02:48:29;;;;;;;13.48;9.65;;;;;;;6.39;100.00;101506.72;10061457;28;20075;-69
2023/02/03 02:53:31;;;;;;;13.25;9.25;;;;;;;6.39;100.00;101495.88;10062669;28;20055;-69
2023/02/03 02:58:30;;;;;;;16.23;9.05;;;;;;;6.38;100.00;101510.50;10062714;28;20083;-69
2023/02/03 03:03:26;;;;;;;21.10;9.82;;;;;;;6.45;100.00;101481.22;10069086;28;20043;-69
2023/02/03 03:08:31;;;;;;;14.32;8.90;;;;;;;6.42;100.00;101470.88;10066357;28;20512;-69
2023/02/03 03:13:32;;;;;;;13.73;8.82;;;;;;;6.47;100.00;101460.00;10060366;28;20510;-69
2023/02/03 03:18:37;;;;;;;13.18;7.57;;;;;;;6.47;100.00;101451.84;10069314;28;20061;-68
2023/02/03 03:23:38;;;;;;;13.88;7.65;;;;;;;6.52;100.00;101445.59;10067281;28;20066;-69
2023/02/03 03:28:46;;;;;;;12.38;8.02;;;;;;;6.56;100.00;101421.41;10065753;28;20422;-68
2023/02/03 03:33:44;;;;;;;13.73;8.35;;;;;;;6.60;100.00;101425.22;10068182;28;20039;-69
2023/02/03 03:38:46;;;;;;;13.65;8.73;;;;;;;6.60;100.00;101404.28;10068227;28;20091;-68
2023/02/03 03:43:43;;;;;;;13.77;8.43;;;;;;;6.57;100.00;101401.31;10062833;28;20043;-68
2023/02/03 03:48:53;;;;;;;16.40;9.40;;;;;;;6.59;100.00;101399.97;10068582;28;20075;-69
2023/02/03 03:53:54;;;;;;;10.80;7.72;;;;;;;6.51;100.00;101423.03;10066769;28;20102;-69
2023/02/03 03:58:52;;;;;;;15.27;7.43;;;;;;;6.44;100.00;101433.38;10074480;28;20074;-69
2023/02/03 04:03:54;;;;;;;14.05;7.75;;;;;;;6.47;100.00;101421.97;10105118;28;20106;-69
2023/02/03 04:08:51;;;;;;;14.48;8.43;;;;;;;6.46;100.00;101431.22;10114195;28;20043;-69
2023/02/03 04:13:47;;;;;;;15.02;8.32;;;;;;;6.43;100.00;101410.03;10115034;28;20530;-69
2023/02/03 04:18:44;;;;;;;11.48;7.97;;;;;;;6.36;100.00;101404.06;10113259;28;20130;-68
2023/02/03 04:23:40;;;;;;;17.90;9.30;;;;;;;6.34;100.00;101389.94;10114216;28;20077;-69
2023/02/03 04:28:37;;;;;;;23.75;17.88;;;;;;;6.28;100.00;101380.97;10111337;28;20130;-69
2023/02/03 04:33:33;;;;;;;18.73;17.00;;;;;;;6.31;100.00;101363.31;10114315;28;20488;-68
2023/02/03 04:38:29;;;;;;;17.52;15.70;;;;;;;6.30;100.00;101356.25;10113842;28;20054;-68
2023/02/03 04:43:26;;;;;;;17.35;15.65;;;;;;;6.34;100.00;101389.94;10110455;28;20425;-68
2023/02/03 04:48:22;;;;;;;18.92;16.65;;;;;;;6.35;100.00;101375.25;10110337;28;20673;-68
2023/02/03 04:53:19;;;;;;;17.80;16.17;;;;;;;6.37;100.00;101367.66;10109451;28;20233;-69
2023/02/03 04:58:15;;;;;;;20.73;17.25;;;;;;;6.38;100.00;101369.25;10105060;28;20051;-69
2023/02/03 05:03:12;;;;;;;19.08;17.17;;;;;;;6.34;100.00;101343.75;10109008;28;20122;-69
2023/02/03 05:08:08;;;;;;;19.08;17.35;;;;;;;6.31;100.00;101336.97;10112537;28;20413;-67
2023/02/03 05:13:05;;;;;;;17.98;16.30;;;;;;;6.32;100.00;101333.16;10112722;28;20485;-68
2023/02/03 05:18:01;;;;;;;19.20;17.35;;;;;;;6.31;100.00;101319.84;10107273;28;20109;-68
2023/02/03 05:22:58;;;;;;;19.92;17.92;;;;;;;6.32;100.00;101305.19;10104706;28;20637;-68
2023/02/03 05:27:54;;;;;;;16.90;15.50;;;;;;;6.30;100.00;101312.81;10103002;28;20509;-68
2023/02/03 05:32:51;;;;;;;20.25;16.27;;;;;;;6.29;100.00;101333.72;10092888;28;20102;-67
2023/02/03 05:37:47;;;;;;;18.67;16.75;;;;;;;6.32;100.00;101299.75;10096215;28;20074;-68
2023/02/03 05:42:48;;;;;;;17.77;16.02;;;;;;;6.32;100.00;101286.19;10097130;28;20142;-68
2023/02/03 05:47:44;;;;;;;17.88;15.98;;;;;;;6.32;100.00;101288.91;10097769;28;20078;-68
2023/02/03 05:52:41;;;;;;;17.55;16.02;;;;;;;6.34;100.00;101270.44;10108145;28;20074;-68
2023/02/03 05:57:37;;;;;;;17.83;16.13;;;;;;;6.37;100.00;101290.78;10103699;28;20416;-68
2023/02/03 06:02:34;;;;;;;19.60;17.35;;;;;;;6.35;100.00;101282.09;10100824;28;20509;-68
2023/02/03 06:07:31;;;;;;;18.85;16.42;;;;;;;6.33;100.00;101274.22;10084038;28;20055;-67
2023/02/03 06:12:27;;;;;;;15.88;14.50;;;;;;;6.35;100.00;101250.31;10105993;28;20134;-68
2023/02/03 06:17:24;;;;;;;15.38;14.10;;;;;;;6.36;100.00;101237.53;10085765;28;20097;-69
2023/02/03 06:22:21;;;;;;;19.05;13.43;;;;;;;6.36;100.00;101241.09;10054345;28;20532;-69
2023/02/03 06:27:17;;;;;;;21.00;13.55;;;;;;;6.36;100.00;101232.94;10055832;28;20054;-69
2023/02/03 06:32:14;;;;;;;14.13;12.88;;;;;;;6.38;100.00;101232.66;10060135;28;20354;-69
2023/02/03 06:37:10;;;;;;;17.50;13.35;;;;;;;6.41;100.00;101222.06;10057476;28;20159;-69
2023/02/03 06:42:06;;;;;;;13.35;12.02;;;;;;;6.46;100.00;101257.34;10057814;28;20073;-69
2023/02/03 06:47:03;;;;;;;13.20;12.00;;;;;;;6.49;100.00;101218.75;10063117;28;20047;-70
2023/02/03 06:51:59;;;;;;;21.75;12.43;;;;;;;6.52;100.00;101201.91;10062231;28;20035;-69
2023/02/03 06:56:56;;;;;;;18.05;11.02;;;;;;;6.59;100.00;101211.66;10064421;28;20513;-69
2023/02/03 07:01:52;;;;;;;14.32;11.23;;;;;;;6.67;100.00;101192.88;10082530;28;20130;-69
2023/02/03 07:06:49;;;;;;;17.45;11.90;;;;;;;6.73;100.00;101201.81;10095261;28;20665;-69
2023/02/03 07:11:45;;;;;;;26.48;14.38;;;;;;;6.78;100.00;101222.69;10095703;28;20133;-69
2023/02/03 07:16:42;;;;;;;24.02;13.02;;;;;;;6.78;100.00;101199.06;10087471;28;20074;-69
2023/02/03 07:21:38;;;;;;;12.60;11.40;;;;;;;6.80;100.00;101213.19;10065533;28;20055;-69
2023/02/03 07:26:34;;;;;;;18.48;13.55;;;;;;;6.79;100.00;101214.28;10056426;28;20048;-69
2023/02/03 07:31:31;;;;;;;14.45;12.15;;;;;;;6.83;100.00;101196.31;10064829;28;20409;-68
2023/02/03 07:36:27;;;;;;;19.85;12.20;;;;;;;6.84;100.00;101176.19;10059718;28;20138;-69
2023/02/03 07:41:24;;;;;;;17.35;11.98;;;;;;;6.88;100.00;101199.00;10057978;28;20429;-69
2023/02/03 07:46:20;;;;;;;14.70;11.88;;;;;;;6.92;100.00;101193.81;10061198;28;20055;-71
2023/02/03 07:51:17;;;;;;;21.05;12.27;;;;;;;6.95;100.00;101177.75;10059133;28;20047;-69
2023/02/03 07:56:13;;;;;;;20.58;13.50;;;;;;;6.98;100.00;101192.69;10064264;28;20047;-69
2023/02/03 08:01:15;;;;;;;29.02;14.20;;;;;;;7.00;100.00;101189.69;10067970;28;20051;-69
2023/02/03 08:06:12;;;;;;;21.43;12.73;;;;;;;7.01;100.00;101215.75;10073025;28;20074;-69
2023/02/03 08:11:10;;;;;;;20.85;14.32;;;;;;;7.01;100.00;101259.28;10093735;28;20576;-69
2023/02/03 08:16:06;;;;;;;22.50;18.83;;;;;;;6.83;100.00;101258.03;10051836;28;20090;-69
2023/02/03 08:21:03;;;;;;;26.85;22.58;;;;;;;6.63;100.00;101272.50;10074077;28;20058;-69
2023/02/03 08:26:00;;;;;;;32.35;22.20;;;;;;;6.57;100.00;101270.88;10100434;28;20046;-69
2023/02/03 08:30:56;;;;;;;22.02;19.33;;;;;;;6.58;100.00;101248.06;10105510;28;20074;-70
2023/02/03 08:35:53;;;;;;;19.10;16.20;;;;;;;6.55;100.00;101248.63;10099329;28;20049;-70
2023/02/03 08:40:49;;;;;;;27.77;20.67;;;;;;;6.49;100.00;101270.38;10096375;28;20130;-72
2023/02/03 08:45:46;;;;;;;30.00;20.58;;;;;;;6.42;100.00;101267.13;10092225;28;20512;-70
2023/02/03 08:50:44;;;;;;;40.30;15.70;;;;;;;6.55;100.00;101244.00;10091526;28;20173;-70
2023/02/03 08:55:40;;;;;;;23.65;13.18;;;;;;;6.49;100.00;101273.09;10088701;28;20058;-70
2023/02/03 09:00:37;;;;;;;42.58;12.52;;;;;;;6.46;100.00;101268.22;10087268;28;20137;-70
2023/02/03 09:05:33;;;;;;;36.55;10.48;;;;;;;6.43;100.00;101236.19;10088577;28;20051;-70
2023/02/03 09:10:30;;;;;;;35.55;10.02;;;;;;;6.42;100.00;101261.69;10094181;28;20492;-71
2023/02/03 09:15:26;;;;;;;24.48;7.50;;;;;;;6.53;100.00;101247.00;10107959;28;20130;-70
2023/02/03 09:20:24;;;;;;;35.42;9.55;;;;;;;6.46;100.00;101273.66;10096742;28;20167;-68
2023/02/03 09:25:22;;;;;;;28.02;10.48;;;;;;;6.46;100.00;101279.06;10107807;28;20592;-68
2023/02/03 09:30:18;;;;;;;31.50;9.98;;;;;;;6.55;100.00;101248.63;10104154;28;20055;-69
2023/02/03 09:35:15;;;;;;;33.38;11.13;;;;;;;6.53;100.00;101263.28;10106476;28;20529;-68
2023/02/03 09:40:26;;;;;;;50.85;12.73;;;;;;;6.52;100.00;101266.28;10107246;28;20058;-68
2023/02/03 09:45:29;;;;;;;33.92;11.43;;;;;;;6.56;100.00;101299.97;10104261;28;20063;-68
2023/02/03 09:50:30;;;;;;;38.65;11.77;;;;;;;6.56;100.00;101310.03;10099298;28;20703;-67
2023/02/03 09:55:37;;;;;;;34.33;10.70;;;;;;;6.50;100.00;101296.47;10101812;28;20146;-67
2023/02/03 10:00:39;;;;;;;46.15;10.48;;;;;;;6.56;100.00;101342.63;10108590;28;20051;-68
2023/02/03 10:05:47;;;;;;;37.58;10.65;;;;;;;6.55;100.00;101309.22;10102091;28;20469;-68
2023/02/03 10:11:08;;;;;;;46.95;11.35;;;;;;;6.60;100.00;101324.69;10107034;28;20047;-67
2023/02/03 10:16:17;;;;;;;62.20;13.88;;;;;;;6.62;100.00;101341.53;10096790;28;20043;-68
2023/02/03 10:21:30;;;;;;;41.45;12.80;;;;;;;6.75;100.00;101362.66;10105389;28;20039;-68
2023/02/03 10:26:28;;;;;;;45.88;14.00;;;;;;;6.74;100.00;101369.22;10102473;28;20066;-68
2023/02/03 10:31:33;;;;;;;36.50;11.45;;;;;;;6.75;100.00;101373.53;10088303;28;20051;-68
2023/02/03 10:36:42;;;;;;;44.25;11.80;;;;;;;6.73;100.00;101375.75;10055502;28;20141;-68
2023/02/03 10:41:39;;;;;;;45.45;14.00;;;;;;;6.74;100.00;101393.66;10055695;28;20502;-69
2023/02/03 10:46:39;;;;;;;46.95;11.10;;;;;;;6.70;100.00;101381.72;10067066;28;20564;-68
2023/02/03 10:51:50;;;;;;;41.28;10.45;;;;;;;6.72;100.00;101390.41;10065585;28;20505;-68
2023/02/03 10:56:47;;;;;;;50.67;12.80;;;;;;;6.73;100.00;101392.06;10065973;28;20689;-68
2023/02/03 11:01:47;;;;;;;42.55;10.68;;;;;;;6.86;100.00;101391.47;10065669;28;20074;-68
2023/02/03 11:06:55;;;;;;;38.90;10.50;;;;;;;7.02;100.00;101405.00;10062555;28;20050;-68
2023/02/03 11:12:20;;;;;;;49.13;14.90;;;;;;;7.05;100.00;101393.56;10058181;28;20075;-68
2023/02/03 11:17:22;;;;;;;56.20;14.02;;;;;;;7.09;100.00;101394.66;10080013;28;20079;-68
2023/02/03 11:22:41;;;;;;;39.00;11.82;;;;;;;7.14;100.00;101391.91;10099365;28;20497;-68
2023/02/03 11:27:37;;;;;;;38.30;10.07;;;;;;;7.24;100.00;101408.22;10101543;28;20070;-68
2023/02/03 11:32:36;;;;;;;46.63;12.13;;;;;;;7.37;100.00;101407.59;10101054;28;20386;-68
2023/02/03 11:37:40;;;;;;;35.00;10.85;;;;;;;7.30;100.00;101417.16;10104754;28;20057;-68
2023/02/03 11:42:42;;;;;;;34.15;10.75;;;;;;;7.34;100.00;101405.44;10102857;28;20110;-68
2023/02/03 11:48:10;;;;;;;45.15;12.45;;;;;;;7.33;100.00;101413.84;10095317;28;20101;-68
2023/02/03 11:53:13;;;;;;;34.00;10.18;;;;;;;7.21;100.00;101414.19;10099432;28;20070;-68
2023/02/03 11:58:13;;;;;;;44.95;11.25;;;;;;;7.14;100.00;101392.72;10103357;28;20445;-68
2023/02/03 12:03:38;;;;;;;48.72;11.27;;;;;;;7.19;100.00;101401.97;10104501;28;20066;-68
2023/02/03 12:08:50;;;;;;;38.13;10.38;;;;;;;7.18;100.00;101413.94;10096377;28;20519;-67
2023/02/03 12:14:06;;;;;;;38.77;11.37;;;;;;;7.35;100.00;101426.09;10072839;28;20082;-68
2023/02/03 12:19:12;;;;;;;36.92;10.35;;;;;;;7.52;100.00;101446.69;10065612;28;20130;-68
2023/02/03 12:24:28;;;;;;;36.55;10.63;;;;;;;7.33;100.00;101416.56;10099773;28;20482;-68
2023/02/03 12:29:30;;;;;;;41.75;12.05;;;;;;;7.18;100.00;101447.38;10110622;28;20146;-68
2023/02/03 12:34:49;;;;;;;39.13;12.38;;;;;;;7.08;100.00;101453.66;10108590;28;20419;-68
2023/02/03 12:39:51;;;;;;;43.00;10.50;;;;;;;7.07;100.00;101445.78;10108729;28;20738;-68
2023/02/03 12:44:57;;;;;;;26.27;9.32;;;;;;;6.97;100.00;101478.44;10107628;28;20042;-68
2023/02/03 12:50:04;;;;;;;38.33;10.85;;;;;;;6.91;100.00;101470.28;10066795;28;20493;-68
2023/02/03 12:55:16;;;;;;;40.30;10.38;;;;;;;6.85;100.00;101476.81;10065130;29;20174;-68
2023/02/03 13:00:29;;;;;;;33.92;9.35;;;;;;;6.84;100.00;101464.31;10108050;28;20082;-68
2023/02/03 13:05:39;;;;;;;28.80;8.85;;;;;;;6.82;100.00;101477.34;10100310;28;20085;-68
2023/02/03 13:10:47;;;;;;;33.97;11.10;;;;;;;6.80;100.00;101473.28;10106295;28;20129;-68
2023/02/03 13:15:48;;;;;;;37.55;11.20;;;;;;;6.75;100.00;101479.53;10101114;28;20109;-68
2023/02/03 13:20:45;;;;;;;39.75;11.40;;;;;;;6.71;100.00;101489.34;10099556;28;20046;-68
2023/02/03 13:26:23;;;;;;;24.35;8.88;;;;;;;6.72;100.00;101494.50;10108456;28;20073;-68
2023/02/03 13:31:39;;;;;;;32.38;9.32;;;;;;;6.70;100.00;101487.72;10100320;28;20074;-68
2023/02/03 13:36:51;;;;;;;40.42;9.30;;;;;;;6.65;100.00;101498.59;10097521;28;20105;-68
2023/02/03 13:41:52;;;;;;;43.67;10.25;;;;;;;6.61;100.00;101503.72;10109762;28;20073;-68
2023/02/03 13:46:51;;;;;;;32.75;9.90;;;;;;;6.62;100.00;101520.88;10102959;28;20047;-68
2023/02/03 13:51:47;;;;;;;28.10;10.05;;;;;;;6.60;100.00;101525.75;10103383;28;20042;-68
2023/02/03 13:56:54;;;;;;;33.17;10.48;;;;;;;6.59;100.00;101537.69;10100161;28;20101;-68
2023/02/03 14:01:50;;;;;;;32.58;9.95;;;;;;;6.57;100.00;101545.31;10108186;28;20493;-68
2023/02/03 14:06:51;;;;;;;44.47;11.90;;;;;;;6.52;100.00;101506.19;10099766;28;20065;-68
2023/02/03 14:12:11;;;;;;;30.27;10.38;;;;;;;6.50;100.00;101535.53;10105519;28;20043;-68
2023/02/03 14:17:33;;;;;;;49.05;11.38;;;;;;;6.51;100.00;101552.66;10106662;28;20137;-68
2023/02/03 14:22:30;;;;;;;34.20;10.48;;;;;;;6.47;100.00;101525.19;10104970;28;20042;-69
2023/02/03 14:27:28;;;;;;;42.33;11.75;;;;;;;6.45;100.00;101527.38;10100791;28;20097;-69
2023/02/03 14:32:47;;;;;;;49.75;11.07;;;;;;;6.42;100.00;101555.06;10107913;28;20057;-68
2023/02/03 14:37:56;;;;;;;34.40;10.35;;;;;;;6.35;100.00;101549.09;10074033;28;20150;-67
2023/02/03 14:43:04;;;;;;;35.58;11.90;;;;;;;6.34;100.00;101558.34;10062390;28;20129;-67
2023/02/03 14:48:32;;;;;;;47.42;11.23;;;;;;;6.33;100.00;101559.41;10060260;28;20505;-69
2023/02/03 14:54:09;;;;;;;28.02;11.77;;;;;;;6.36;100.00;101555.34;10066525;28;20043;-69
2023/02/03 14:59:10;;;;;;;48.33;12.90;;;;;;;6.31;100.00;101542.56;10055349;28;20058;-68
2023/02/03 15:04:12;;;;;;;35.33;11.23;;;;;;;6.34;100.00;101566.47;10067180;28;20106;-69
2023/02/03 15:09:23;;;;;;;33.60;10.25;;;;;;;6.35;100.00;101557.25;10053008;28;20490;-69
2023/02/03 15:14:31;;;;;;;35.72;11.45;;;;;;;6.36;100.00;101561.59;10051706;28;20051;-69
2023/02/03 15:19:33;;;;;;;23.85;9.20;;;;;;;6.37;100.00;101555.06;10065504;28;20502;-68
2023/02/03 15:24:35;;;;;;;53.05;12.25;;;;;;;6.37;100.00;101565.13;10059092;28;20051;-68
2023/02/03 15:29:35;;;;;;;35.38;11.20;;;;;;;6.37;100.00;101612.13;10058925;28;20051;-68
2023/02/03 15:34:38;;;;;;;37.45;13.10;;;;;;;6.31;100.00;101596.88;10058475;28;20062;-69
2023/02/03 15:39:44;;;;;;;37.35;11.48;;;;;;;6.31;100.00;101605.03;10103055;28;20054;-69
2023/02/03 15:44:48;;;;;;;34.85;10.85;;;;;;;6.32;100.00;101598.53;10102062;28;20552;-69
2023/02/03 15:49:46;;;;;;;46.42;12.23;;;;;;;6.29;100.00;101599.06;10105254;28;20046;-69
2023/02/03 15:54:52;;;;;;;30.27;10.70;;;;;;;6.30;100.00;101614.28;10102371;28;20122;-69
2023/02/03 15:59:59;;;;;;;32.60;11.55;;;;;;;6.30;100.00;101615.06;10098734;28;20051;-69
2023/02/03 16:04:55;;;;;;;39.75;11.05;;;;;;;6.29;100.00;101631.66;10104657;28;20042;-69
2023/02/03 16:09:54;;;;;;;32.83;9.18;;;;;;;6.29;100.00;101643.34;10111433;28;20046;-69
2023/02/03 16:14:53;;;;;;;27.75;10.00;;;;;;;6.13;100.00;101632.66;10109845;28;20165;-67
2023/02/03 16:19:50;;;;;;;39.50;12.68;;;;;;;6.02;100.00;101645.38;10109685;28;20416;-67
2023/02/03 16:24:46;;;;;;;43.47;13.27;;;;;;;6.01;100.00;101652.72;10103287;28;20054;-70
2023/02/03 16:50:53;;;;;;;36.30;17.95;;;;;;;5.55;100.00;101714.81;10108521;28;20038;-69
2023/02/03 16:55:55;;;;;;;49.85;18.88;;;;;;;5.43;100.00;101700.59;10104413;28;20094;-69
2023/02/03 17:00:53;;;;;;;45.28;20.52;;;;;;;5.35;100.00;101736.34;10108669;28;20081;-69
2023/02/03 17:05:50;;;;;;;45.58;18.48;;;;;;;5.26;100.00;101744.13;10112002;28;20047;-69
2023/02/03 17:10:48;;;;;;;53.75;19.13;;;;;;;5.16;100.00;101760.31;10112526;28;20126;-69
2023/02/03 17:15:47;;;;;;;68.25;21.73;;;;;;;5.10;100.00;101750.47;10108948;28;20046;-69
2023/02/03 17:20:45;;;;;;;51.42;20.65;;;;;;;5.11;100.00;101773.81;10110246;28;20570;-68
2023/02/03 17:25:44;;;;;;;53.72;20.80;;;;;;;5.12;100.00;101776.25;10099147;28;20054;-69
2023/02/03 17:30:41;;;;;;;56.30;21.90;;;;;;;5.10;100.00;101794.66;10103722;28;20074;-69
2023/02/03 17:35:42;;;;;;;50.05;22.75;;;;;;;5.14;100.00;101806.63;10107014;28;20118;-69
2023/02/03 17:40:40;;;;;;;54.70;21.05;;;;;;;5.15;100.00;101834.56;10101852;28;20521;-67
2023/02/03 17:45:57;;;;;;;51.00;22.35;;;;;;;5.13;100.00;101826.69;10110359;28;20039;-69
2023/02/03 17:51:18;;;;;;;48.38;19.42;;;;;;;5.05;100.00;101835.28;10110660;28;20055;-69
2023/02/03 17:56:34;;;;;;;65.18;21.35;;;;;;;5.07;100.00;101860.25;10102961;28;20478;-69
2023/02/03 18:01:31;;;;;;;62.83;23.10;;;;;;;5.13;100.00;101872.78;10101007;28;21740;-70
2023/02/03 18:06:28;;;;;;;50.50;23.45;;;;;;;5.10;100.00;101878.69;10103475;28;20100;-69
2023/02/03 18:11:25;;;;;;;52.83;21.58;;;;;;;5.09;100.00;101874.38;10109906;28;20057;-69
2023/02/03 18:16:28;;;;;;;41.45;23.92;;;;;;;5.13;100.00;101889.06;10108800;28;20401;-69
2023/02/03 18:21:25;;;;;;;60.63;22.73;;;;;;;5.11;100.00;101893.91;10100940;28;20129;-70
2023/02/03 18:26:22;;;;;;;42.78;18.48;;;;;;;5.13;100.00;101897.19;10099849;28;20073;-69
2023/02/03 18:31:19;;;;;;;52.72;20.38;;;;;;;5.13;100.00;101902.63;10106660;28;20156;-70
2023/02/03 18:36:17;;;;;;;56.70;23.35;;;;;;;5.16;100.00;101923.78;10101764;28;20050;-69
2023/02/03 18:41:17;;;;;;;47.15;19.88;;;;;;;5.15;100.00;101916.75;10102769;28;20047;-69
2023/02/03 18:46:26;;;;;;;49.38;21.73;;;;;;;5.14;100.00;101917.78;10104976;28;20050;-69
2023/02/03 18:51:24;;;;;;;40.03;19.25;;;;;;;5.14;100.00;101941.38;10084222;28;20054;-69
2023/02/03 18:56:23;;;;;;;37.10;18.83;;;;;;;5.10;100.00;101957.31;10094396;28;20137;-70
2023/02/03 19:01:28;;;;;;;44.28;18.38;;;;;;;5.01;100.00;101977.78;10100027;28;20138;-67
2023/02/03 19:06:28;;;;;;;41.90;21.10;;;;;;;5.01;100.00;101980.50;10102163;28;20143;-70
2023/02/03 19:11:25;;;;;;;41.92;18.42;;;;;;;5.06;100.00;102010.41;10096830;28;20059;-67
2023/02/03 19:16:25;;;;;;;38.20;17.38;;;;;;;5.07;100.00;102015.56;10067938;28;20043;-70
2023/02/03 19:21:21;;;;;;;47.50;19.05;;;;;;;5.09;100.00;102031.59;10063211;28;20077;-69
2023/02/03 19:26:18;;;;;;;37.53;19.20;;;;;;;5.03;100.00;102048.84;10068190;28;20141;-67
2023/02/03 19:31:15;;;;;;;34.88;18.85;;;;;;;5.03;100.00;102068.63;10059100;28;20047;-69
2023/02/03 19:36:13;;;;;;;36.85;16.98;;;;;;;5.00;100.00;102061.00;10065205;28;20129;-70
2023/02/03 19:41:10;;;;;;;25.85;16.98;;;;;;;5.03;100.00;102075.97;10056179;28;20135;-70
2023/02/03 19:46:07;;;;;;;36.70;19.38;;;;;;;5.07;100.00;102082.53;10066039;28;20131;-69
2023/02/03 19:51:04;;;;;;;29.75;17.67;;;;;;;5.09;100.00;102095.84;10067883;28;20051;-69
2023/02/03 19:56:01;;;;;;;23.85;17.20;;;;;;;5.07;100.00;102098.81;10066879;28;20047;-70
2023/02/03 20:00:58;;;;;;;20.75;15.60;;;;;;;5.05;100.00;102107.16;10081643;28;20090;-70
2023/02/03 20:05:54;;;;;;;20.70;14.73;;;;;;;5.03;100.00;102109.31;10066872;28;20102;-67
2023/02/03 20:10:51;;;;;;;14.90;13.35;;;;;;;5.05;100.00;102122.63;10069535;28;20461;-70
2023/02/03 20:15:49;;;;;;;20.25;14.02;;;;;;;5.04;100.00;102142.69;10058864;28;20075;-69
2023/02/03 20:20:50;;;;;;;23.75;14.93;;;;;;;5.02;100.00;102150.22;10063518;28;20071;-70
2023/02/03 20:25:54;;;;;;;13.75;12.52;;;;;;;4.92;100.00;102172.56;10075383;28;20051;-69
2023/02/03 20:30:52;;;;;;;17.40;14.45;;;;;;;4.78;100.00;102182.88;10066801;28;20043;-69
2023/02/03 20:35:49;;;;;;;17.48;14.15;;;;;;;4.64;100.00;102205.91;10065525;28;20130;-69
2023/02/03 20:40:46;;;;;;;18.45;14.55;;;;;;;4.57;100.00;102235.00;10060713;28;20517;-69
2023/02/03 20:45:45;;;;;;;16.05;13.80;;;;;;;4.48;100.00;102260.84;10072916;28;20047;-69
2023/02/03 20:50:46;;;;;;;13.77;12.50;;;;;;;4.31;100.00;102258.88;10072029;28;20062;-69
2023/02/03 20:55:43;;;;;;;15.30;13.80;;;;;;;4.34;100.00;102287.34;10076315;28;20139;-69
2023/02/03 21:00:40;;;;;;;14.77;13.43;;;;;;;4.35;100.00;102300.66;10072885;28;20138;-69
2023/02/03 21:05:40;;;;;;;15.48;13.90;;;;;;;4.36;100.00;102318.56;10063226;28;20055;-70
2023/02/03 21:10:39;;;;;;;15.80;14.50;;;;;;;4.17;100.00;102327.84;10063879;28;20114;-69
2023/02/03 21:15:36;;;;;;;15.73;14.25;;;;;;;4.10;100.00;102348.81;10067769;28;20130;-69
2023/02/03 21:20:33;;;;;;;16.23;14.75;;;;;;;4.07;100.00;102350.09;10103517;28;20046;-70
2023/02/03 21:25:33;;;;;;;18.05;16.60;;;;;;;4.07;100.00;102370.94;10104078;28;20059;-69
2023/02/03 21:30:33;;;;;;;16.90;15.70;;;;;;;3.98;100.00;102379.38;10108114;28;20047;-69
2023/02/03 21:35:36;;;;;;;14.80;13.70;;;;;;;3.90;100.00;102395.97;10106925;28;20055;-70
2023/02/03 21:40:33;;;;;;;12.95;12.15;;;;;;;3.73;100.00;102392.28;10106379;28;20101;-69
2023/02/03 21:45:35;;;;;;;14.32;13.07;;;;;;;3.75;100.00;102418.03;10102348;28;20082;-69
2023/02/03 21:50:35;;;;;;;17.13;15.50;;;;;;;3.75;100.00;102433.47;10070634;28;20065;-69
2023/02/03 21:55:32;;;;;;;14.63;13.50;;;;;;;3.61;100.00;102442.81;10064936;28;20564;-69
2023/02/03 22:00:47;;;;;;;16.02;15.13;;;;;;;3.57;100.00;102453.25;10060222;28;20039;-69
2023/02/03 22:05:45;;;;;;;13.43;12.63;;;;;;;3.32;100.00;102456.91;10064361;28;20059;-69
2023/02/03 22:10:44;;;;;;;14.00;13.00;;;;;;;3.10;100.00;102470.03;10065922;28;20541;-69
2023/02/03 22:15:42;;;;;;;13.63;12.73;;;;;;;2.95;100.00;102489.31;10065009;28;20094;-69
2023/02/03 22:20:38;;;;;;;16.30;15.00;;;;;;;2.84;100.00;102517.06;10065909;28;20055;-69
2023/02/03 22:25:36;;;;;;;16.13;14.93;;;;;;;2.77;100.00;102529.00;10065289;28;20047;-68
2023/02/03 22:30:34;;;;;;;16.60;15.40;;;;;;;2.68;100.00;102558.97;10062437;28;20047;-68
2023/02/03 22:35:31;;;;;;;17.38;16.33;;;;;;;2.58;100.00;102571.31;10060312;28;20043;-68
2023/02/03 22:40:27;;;;;;;17.65;16.35;;;;;;;2.50;100.00;102583.19;10072133;28;20048;-68
2023/02/03 22:45:25;;;;;;;19.52;17.98;;;;;;;2.49;100.00;102603.97;10049961;28;20135;-66
2023/02/03 22:50:22;;;;;;;13.25;12.25;;;;;;;2.47;100.00;102611.47;10062319;28;20070;-66
2023/02/03 22:55:30;;;;;;;15.70;14.70;;;;;;;2.36;100.00;102635.63;10058277;28;20056;-65